Airfield :
LOGIN :

Register | Disclaimer

   EN    FR    IT 

 










Legend :    VFR   Marginal VFR   IFR   Intensive IFR   Very Intensive IFR
Visi :
Ceiling :
>= 8 km
>= 3000ft
5 to 8 km
1000 to 3000 ft
1500m to 5 km
500 to 1000 ft
800 to 1500m
200 to 500 ft
< 800m
< 200 ft
Symbols :   Thunderstorms  Fog  Heavy snow  Heavy precipitations  Wind > 20 kt
SIGMETs :     Misc.  Thunderstorms  Icing  Turbulence  Mountain Waves  Volcanic Ashes






- Airport Elevation : 25 ft
- IATA code : TPS


LICT - Vincenzo Florio Trapani

CURRENT METAR :
  • 200055Z 14006KT CAVOK 08/08 Q1015 RMK SKC VIS MIN 9999 WIND THR13 16005KT BLU

EXPIRED METARs :
  • 192355Z 22001KT CAVOK 12/10 Q1016
  • 192255Z 31007KT 9999 FEW030 13/10 Q1017 RMK FEW VIS MIN 9999 WIND THR13 33010KT BLU
  • 192155Z 32007KT 9999 FEW030 13/11 Q1016
  • 192055Z 34006KT 9999 FEW030 14/11 Q1017

TAF TAF LICT
Valid from the 20 at 00:00 until the 20 at 09:00 UTC


192300Z 2000/2009 33007KT 9999 FEW030
BECMG 2006/2008 24015KT



MET'MAP, your aeronautical weather chart ! - Copyright ORBIFLY December 2007 - Disclaimer

ORBIFLY MET'MAP TEAM :

Programming & Development : Alexandra Zaïnal
Original concept : Baudouin d'Aumeries
Technical & hardware support : Manuel Goepfert
Assistance : Marc-Olivier Méhu




SOURCES & CREDITS :

   NOAA